sensor_id;sensor_type;location;lat;lon;timestamp;P1;durP1;ratioP1;P2;durP2;ratioP2
74935;SDS011;63501;55.570;37.488;2022-11-25T00:00:51;7.20;;;3.75;;
74935;SDS011;63501;55.570;37.488;2022-11-25T00:03:16;8.25;;;3.67;;
74935;SDS011;63501;55.570;37.488;2022-11-25T00:05:42;6.43;;;3.17;;
74935;SDS011;63501;55.570;37.488;2022-11-25T00:08:08;9.13;;;4.00;;
74935;SDS011;63501;55.570;37.488;2022-11-25T00:10:33;7.10;;;3.30;;
74935;SDS011;63501;55.570;37.488;2022-11-25T00:12:59;9.05;;;3.40;;
74935;SDS011;63501;55.570;37.488;2022-11-25T00:15:24;9.55;;;4.25;;
74935;SDS011;63501;55.570;37.488;2022-11-25T00:17:50;9.25;;;4.05;;
74935;SDS011;63501;55.570;37.488;2022-11-25T00:20:16;6.35;;;3.20;;
74935;SDS011;63501;55.570;37.488;2022-11-25T00:22:44;8.57;;;3.58;;
74935;SDS011;63501;55.570;37.488;2022-11-25T00:25:10;13.70;;;5.10;;
74935;SDS011;63501;55.570;37.488;2022-11-25T00:27:35;6.97;;;4.32;;
74935;SDS011;63501;55.570;37.488;2022-11-25T00:30:01;6.72;;;3.63;;
74935;SDS011;63501;55.570;37.488;2022-11-25T00:32:30;8.80;;;4.10;;
74935;SDS011;63501;55.570;37.488;2022-11-25T00:34:55;6.60;;;2.67;;
74935;SDS011;63501;55.570;37.488;2022-11-25T00:37:21;9.48;;;3.85;;
74935;SDS011;63501;55.570;37.488;2022-11-25T00:39:46;8.70;;;3.95;;
74935;SDS011;63501;55.570;37.488;2022-11-25T00:42:12;10.98;;;4.85;;
74935;SDS011;63501;55.570;37.488;2022-11-25T00:44:56;7.65;;;4.00;;
74935;SDS011;63501;55.570;37.488;2022-11-25T00:47:22;8.77;;;4.60;;
74935;SDS011;63501;55.570;37.488;2022-11-25T00:49:48;9.55;;;4.03;;
74935;SDS011;63501;55.570;37.488;2022-11-25T00:52:16;9.65;;;4.93;;
74935;SDS011;63501;55.570;37.488;2022-11-25T00:54:43;9.20;;;3.92;;
74935;SDS011;63501;55.570;37.488;2022-11-25T00:57:11;11.45;;;5.10;;
74935;SDS011;63501;55.570;37.488;2022-11-25T00:59:38;9.30;;;4.20;;
74935;SDS011;63501;55.570;37.488;2022-11-25T01:02:03;8.27;;;3.53;;
74935;SDS011;63501;55.570;37.488;2022-11-25T01:04:29;7.32;;;3.25;;
74935;SDS011;63501;55.570;37.488;2022-11-25T01:06:54;6.93;;;3.78;;
74935;SDS011;63501;55.570;37.488;2022-11-25T01:09:21;6.45;;;3.47;;
74935;SDS011;63501;55.570;37.488;2022-11-25T01:11:50;6.20;;;3.53;;
74935;SDS011;63501;55.570;37.488;2022-11-25T01:14:16;7.55;;;3.45;;
74935;SDS011;63501;55.570;37.488;2022-11-25T01:16:42;5.72;;;3.20;;
74935;SDS011;63501;55.570;37.488;2022-11-25T01:19:08;7.47;;;4.05;;
74935;SDS011;63501;55.570;37.488;2022-11-25T01:21:35;6.57;;;2.88;;
74935;SDS011;63501;55.570;37.488;2022-11-25T01:24:01;8.00;;;3.15;;
74935;SDS011;63501;55.570;37.488;2022-11-25T01:26:29;8.00;;;3.38;;
74935;SDS011;63501;55.570;37.488;2022-11-25T01:28:56;5.00;;;2.40;;
74935;SDS011;63501;55.570;37.488;2022-11-25T01:31:24;10.05;;;3.90;;
74935;SDS011;63501;55.570;37.488;2022-11-25T01:33:53;7.93;;;3.38;;
74935;SDS011;63501;55.570;37.488;2022-11-25T01:36:20;7.07;;;3.35;;
74935;SDS011;63501;55.570;37.488;2022-11-25T01:38:49;5.43;;;2.65;;
74935;SDS011;63501;55.570;37.488;2022-11-25T01:41:16;8.57;;;4.15;;
74935;SDS011;63501;55.570;37.488;2022-11-25T01:43:43;5.75;;;2.53;;
74935;SDS011;63501;55.570;37.488;2022-11-25T01:46:18;5.45;;;2.35;;
74935;SDS011;63501;55.570;37.488;2022-11-25T01:48:59;5.15;;;2.72;;
74935;SDS011;63501;55.570;37.488;2022-11-25T01:51:28;7.03;;;2.97;;
74935;SDS011;63501;55.570;37.488;2022-11-25T01:54:01;7.05;;;3.00;;
74935;SDS011;63501;55.570;37.488;2022-11-25T01:56:32;5.30;;;3.10;;
74935;SDS011;63501;55.570;37.488;2022-11-25T01:59:00;7.35;;;3.58;;
74935;SDS011;63501;55.570;37.488;2022-11-25T02:01:26;6.55;;;3.70;;
74935;SDS011;63501;55.570;37.488;2022-11-25T02:03:52;5.60;;;2.83;;
74935;SDS011;63501;55.570;37.488;2022-11-25T02:06:24;6.72;;;3.55;;
74935;SDS011;63501;55.570;37.488;2022-11-25T02:08:54;5.40;;;2.75;;
74935;SDS011;63501;55.570;37.488;2022-11-25T02:11:23;7.03;;;3.85;;
74935;SDS011;63501;55.570;37.488;2022-11-25T02:16:17;6.05;;;3.03;;
74935;SDS011;63501;55.570;37.488;2022-11-25T02:18:43;8.32;;;3.63;;
74935;SDS011;63501;55.570;37.488;2022-11-25T02:21:09;8.68;;;4.03;;
74935;SDS011;63501;55.570;37.488;2022-11-25T02:28:35;3.50;;;2.22;;
74935;SDS011;63501;55.570;37.488;2022-11-25T02:31:02;5.03;;;2.83;;
74935;SDS011;63501;55.570;37.488;2022-11-25T02:33:29;5.82;;;2.80;;
74935;SDS011;63501;55.570;37.488;2022-11-25T02:35:55;6.78;;;3.60;;
74935;SDS011;63501;55.570;37.488;2022-11-25T02:40:58;6.25;;;2.83;;
74935;SDS011;63501;55.570;37.488;2022-11-25T02:43:33;9.85;;;3.80;;
74935;SDS011;63501;55.570;37.488;2022-11-25T02:46:00;7.57;;;3.00;;
74935;SDS011;63501;55.570;37.488;2022-11-25T02:48:29;5.40;;;2.45;;
74935;SDS011;63501;55.570;37.488;2022-11-25T02:50:57;7.18;;;3.30;;
74935;SDS011;63501;55.570;37.488;2022-11-25T02:53:23;5.75;;;3.42;;
74935;SDS011;63501;55.570;37.488;2022-11-25T02:55:49;7.45;;;3.60;;
74935;SDS011;63501;55.570;37.488;2022-11-25T02:58:14;9.80;;;3.97;;
74935;SDS011;63501;55.570;37.488;2022-11-25T03:00:40;5.97;;;3.55;;
74935;SDS011;63501;55.570;37.488;2022-11-25T03:03:06;9.18;;;3.83;;
74935;SDS011;63501;55.570;37.488;2022-11-25T03:05:32;9.05;;;3.78;;
74935;SDS011;63501;55.570;37.488;2022-11-25T03:07:58;9.52;;;4.25;;
74935;SDS011;63501;55.570;37.488;2022-11-25T03:10:24;6.45;;;3.20;;
74935;SDS011;63501;55.570;37.488;2022-11-25T03:12:50;9.15;;;4.05;;
74935;SDS011;63501;55.570;37.488;2022-11-25T03:15:16;8.57;;;3.45;;
74935;SDS011;63501;55.570;37.488;2022-11-25T03:17:42;8.45;;;4.47;;
74935;SDS011;63501;55.570;37.488;2022-11-25T03:20:08;7.03;;;2.95;;
74935;SDS011;63501;55.570;37.488;2022-11-25T03:22:34;5.80;;;3.15;;
74935;SDS011;63501;55.570;37.488;2022-11-25T03:25:00;10.15;;;4.68;;
74935;SDS011;63501;55.570;37.488;2022-11-25T03:27:26;11.95;;;4.53;;
74935;SDS011;63501;55.570;37.488;2022-11-25T03:29:52;7.38;;;3.72;;
74935;SDS011;63501;55.570;37.488;2022-11-25T03:32:17;9.90;;;3.75;;
74935;SDS011;63501;55.570;37.488;2022-11-25T03:34:43;7.72;;;3.33;;
74935;SDS011;63501;55.570;37.488;2022-11-25T03:37:08;8.68;;;4.28;;
74935;SDS011;63501;55.570;37.488;2022-11-25T03:39:34;6.88;;;3.03;;
74935;SDS011;63501;55.570;37.488;2022-11-25T03:42:00;10.63;;;4.20;;
74935;SDS011;63501;55.570;37.488;2022-11-25T03:44:26;10.15;;;4.18;;
74935;SDS011;63501;55.570;37.488;2022-11-25T03:46:51;7.80;;;3.70;;
74935;SDS011;63501;55.570;37.488;2022-11-25T03:49:17;8.15;;;3.33;;
74935;SDS011;63501;55.570;37.488;2022-11-25T03:51:43;5.88;;;3.00;;
74935;SDS011;63501;55.570;37.488;2022-11-25T03:54:09;5.95;;;2.65;;
74935;SDS011;63501;55.570;37.488;2022-11-25T03:56:34;6.00;;;2.50;;
74935;SDS011;63501;55.570;37.488;2022-11-25T03:59:00;4.63;;;2.08;;
74935;SDS011;63501;55.570;37.488;2022-11-25T04:01:25;4.45;;;2.70;;
74935;SDS011;63501;55.570;37.488;2022-11-25T04:03:51;4.82;;;2.22;;
74935;SDS011;63501;55.570;37.488;2022-11-25T04:06:16;5.47;;;2.80;;
74935;SDS011;63501;55.570;37.488;2022-11-25T04:08:44;5.72;;;3.20;;
74935;SDS011;63501;55.570;37.488;2022-11-25T04:11:10;5.68;;;3.20;;
74935;SDS011;63501;55.570;37.488;2022-11-25T04:13:36;7.25;;;3.40;;
74935;SDS011;63501;55.570;37.488;2022-11-25T04:16:02;4.95;;;2.42;;
74935;SDS011;63501;55.570;37.488;2022-11-25T04:18:27;5.75;;;2.63;;
74935;SDS011;63501;55.570;37.488;2022-11-25T04:20:53;7.10;;;2.80;;
74935;SDS011;63501;55.570;37.488;2022-11-25T04:23:19;6.45;;;2.80;;
74935;SDS011;63501;55.570;37.488;2022-11-25T04:25:44;3.90;;;2.10;;
74935;SDS011;63501;55.570;37.488;2022-11-25T04:28:13;4.28;;;2.53;;
74935;SDS011;63501;55.570;37.488;2022-11-25T04:30:39;4.35;;;2.58;;
74935;SDS011;63501;55.570;37.488;2022-11-25T04:33:05;4.45;;;2.08;;
74935;SDS011;63501;55.570;37.488;2022-11-25T04:35:30;3.90;;;2.08;;
74935;SDS011;63501;55.570;37.488;2022-11-25T04:37:56;5.35;;;2.03;;
74935;SDS011;63501;55.570;37.488;2022-11-25T04:40:21;5.15;;;2.65;;
74935;SDS011;63501;55.570;37.488;2022-11-25T04:42:47;5.82;;;2.38;;
74935;SDS011;63501;55.570;37.488;2022-11-25T04:45:16;4.80;;;2.20;;
74935;SDS011;63501;55.570;37.488;2022-11-25T04:47:42;4.60;;;2.10;;
74935;SDS011;63501;55.570;37.488;2022-11-25T04:50:12;6.78;;;2.80;;
74935;SDS011;63501;55.570;37.488;2022-11-25T04:52:40;7.63;;;3.15;;
74935;SDS011;63501;55.570;37.488;2022-11-25T04:55:06;5.18;;;2.40;;
74935;SDS011;63501;55.570;37.488;2022-11-25T04:57:32;6.15;;;2.40;;
74935;SDS011;63501;55.570;37.488;2022-11-25T04:59:57;7.65;;;3.25;;
74935;SDS011;63501;55.570;37.488;2022-11-25T05:02:26;8.23;;;3.45;;
74935;SDS011;63501;55.570;37.488;2022-11-25T05:04:53;5.60;;;2.95;;
74935;SDS011;63501;55.570;37.488;2022-11-25T05:07:21;6.35;;;1.88;;
74935;SDS011;63501;55.570;37.488;2022-11-25T05:09:48;6.65;;;2.95;;
74935;SDS011;63501;55.570;37.488;2022-11-25T05:12:16;7.70;;;3.72;;
74935;SDS011;63501;55.570;37.488;2022-11-25T05:14:44;8.43;;;3.38;;
74935;SDS011;63501;55.570;37.488;2022-11-25T05:17:11;7.55;;;2.88;;
74935;SDS011;63501;55.570;37.488;2022-11-25T05:19:39;8.13;;;3.83;;
74935;SDS011;63501;55.570;37.488;2022-11-25T05:22:05;5.85;;;3.13;;
74935;SDS011;63501;55.570;37.488;2022-11-25T05:26:59;8.20;;;3.85;;
74935;SDS011;63501;55.570;37.488;2022-11-25T05:29:24;7.05;;;3.13;;
74935;SDS011;63501;55.570;37.488;2022-11-25T05:31:50;8.80;;;3.92;;
74935;SDS011;63501;55.570;37.488;2022-11-25T05:34:15;8.48;;;3.85;;
74935;SDS011;63501;55.570;37.488;2022-11-25T05:36:41;6.60;;;3.20;;
74935;SDS011;63501;55.570;37.488;2022-11-25T05:39:07;9.57;;;3.88;;
74935;SDS011;63501;55.570;37.488;2022-11-25T05:41:32;8.75;;;3.53;;
74935;SDS011;63501;55.570;37.488;2022-11-25T05:43:58;9.15;;;3.45;;
74935;SDS011;63501;55.570;37.488;2022-11-25T05:46:23;12.38;;;5.00;;
74935;SDS011;63501;55.570;37.488;2022-11-25T05:48:53;10.32;;;4.00;;
74935;SDS011;63501;55.570;37.488;2022-11-25T05:51:19;6.45;;;2.65;;
74935;SDS011;63501;55.570;37.488;2022-11-25T05:53:45;7.13;;;3.15;;
74935;SDS011;63501;55.570;37.488;2022-11-25T05:56:11;9.20;;;3.85;;
74935;SDS011;63501;55.570;37.488;2022-11-25T05:58:36;7.45;;;3.00;;
74935;SDS011;63501;55.570;37.488;2022-11-25T06:01:06;9.90;;;4.43;;
74935;SDS011;63501;55.570;37.488;2022-11-25T06:03:32;12.05;;;4.35;;
74935;SDS011;63501;55.570;37.488;2022-11-25T06:05:58;9.20;;;3.92;;
74935;SDS011;63501;55.570;37.488;2022-11-25T06:08:24;8.45;;;3.35;;
74935;SDS011;63501;55.570;37.488;2022-11-25T06:10:50;6.18;;;3.03;;
74935;SDS011;63501;55.570;37.488;2022-11-25T06:13:16;9.93;;;4.00;;
74935;SDS011;63501;55.570;37.488;2022-11-25T06:15:43;9.10;;;3.53;;
74935;SDS011;63501;55.570;37.488;2022-11-25T06:18:09;8.88;;;3.50;;
74935;SDS011;63501;55.570;37.488;2022-11-25T06:20:36;6.88;;;3.10;;
74935;SDS011;63501;55.570;37.488;2022-11-25T06:23:02;9.35;;;4.15;;
74935;SDS011;63501;55.570;37.488;2022-11-25T06:25:28;11.00;;;4.50;;
74935;SDS011;63501;55.570;37.488;2022-11-25T06:27:54;10.68;;;4.07;;
74935;SDS011;63501;55.570;37.488;2022-11-25T06:30:20;6.60;;;2.95;;
74935;SDS011;63501;55.570;37.488;2022-11-25T06:32:46;14.25;;;4.57;;
74935;SDS011;63501;55.570;37.488;2022-11-25T06:35:12;8.73;;;3.83;;
74935;SDS011;63501;55.570;37.488;2022-11-25T06:37:38;11.50;;;4.78;;
74935;SDS011;63501;55.570;37.488;2022-11-25T06:40:04;8.65;;;4.32;;
74935;SDS011;63501;55.570;37.488;2022-11-25T06:42:30;9.43;;;4.03;;
74935;SDS011;63501;55.570;37.488;2022-11-25T06:44:55;10.15;;;4.30;;
74935;SDS011;63501;55.570;37.488;2022-11-25T06:47:21;8.98;;;4.13;;
74935;SDS011;63501;55.570;37.488;2022-11-25T06:49:47;12.15;;;4.38;;
74935;SDS011;63501;55.570;37.488;2022-11-25T06:52:13;15.75;;;5.25;;
74935;SDS011;63501;55.570;37.488;2022-11-25T06:54:40;8.40;;;4.05;;
74935;SDS011;63501;55.570;37.488;2022-11-25T06:57:06;11.63;;;4.63;;
74935;SDS011;63501;55.570;37.488;2022-11-25T06:59:32;10.15;;;4.05;;
74935;SDS011;63501;55.570;37.488;2022-11-25T07:01:58;8.77;;;3.72;;
74935;SDS011;63501;55.570;37.488;2022-11-25T07:04:23;7.85;;;3.78;;
74935;SDS011;63501;55.570;37.488;2022-11-25T07:06:49;12.65;;;4.72;;
74935;SDS011;63501;55.570;37.488;2022-11-25T07:09:15;9.38;;;3.30;;
74935;SDS011;63501;55.570;37.488;2022-11-25T07:11:41;8.18;;;3.28;;
74935;SDS011;63501;55.570;37.488;2022-11-25T07:14:09;10.05;;;3.75;;
74935;SDS011;63501;55.570;37.488;2022-11-25T07:16:37;6.75;;;3.10;;
74935;SDS011;63501;55.570;37.488;2022-11-25T07:19:04;7.68;;;3.13;;
74935;SDS011;63501;55.570;37.488;2022-11-25T07:21:31;8.18;;;3.30;;
74935;SDS011;63501;55.570;37.488;2022-11-25T07:23:58;9.45;;;3.63;;
74935;SDS011;63501;55.570;37.488;2022-11-25T07:26:27;9.30;;;3.25;;
74935;SDS011;63501;55.570;37.488;2022-11-25T07:28:56;9.77;;;4.30;;
74935;SDS011;63501;55.570;37.488;2022-11-25T07:31:26;10.00;;;3.83;;
74935;SDS011;63501;55.570;37.488;2022-11-25T07:36:23;8.50;;;2.85;;
74935;SDS011;63501;55.570;37.488;2022-11-25T07:38:49;8.98;;;3.25;;
74935;SDS011;63501;55.570;37.488;2022-11-25T07:41:16;9.85;;;3.88;;
74935;SDS011;63501;55.570;37.488;2022-11-25T07:43:44;7.43;;;3.70;;
74935;SDS011;63501;55.570;37.488;2022-11-25T07:46:12;6.28;;;3.22;;
74935;SDS011;63501;55.570;37.488;2022-11-25T07:48:43;6.15;;;3.10;;
74935;SDS011;63501;55.570;37.488;2022-11-25T07:51:13;6.93;;;2.65;;
74935;SDS011;63501;55.570;37.488;2022-11-25T07:53:46;5.03;;;2.53;;
74935;SDS011;63501;55.570;37.488;2022-11-25T07:56:12;10.73;;;4.35;;
74935;SDS011;63501;55.570;37.488;2022-11-25T07:58:39;7.20;;;2.70;;
74935;SDS011;63501;55.570;37.488;2022-11-25T08:01:06;6.20;;;2.75;;
74935;SDS011;63501;55.570;37.488;2022-11-25T08:03:33;6.10;;;2.70;;
74935;SDS011;63501;55.570;37.488;2022-11-25T08:06:01;6.68;;;2.85;;
74935;SDS011;63501;55.570;37.488;2022-11-25T08:08:27;9.20;;;3.70;;
74935;SDS011;63501;55.570;37.488;2022-11-25T08:10:53;6.90;;;3.17;;
74935;SDS011;63501;55.570;37.488;2022-11-25T08:13:19;11.18;;;4.13;;
74935;SDS011;63501;55.570;37.488;2022-11-25T08:15:45;9.55;;;3.83;;
74935;SDS011;63501;55.570;37.488;2022-11-25T08:18:10;8.18;;;4.07;;
74935;SDS011;63501;55.570;37.488;2022-11-25T08:20:36;9.43;;;3.35;;
74935;SDS011;63501;55.570;37.488;2022-11-25T08:23:01;9.52;;;4.13;;
74935;SDS011;63501;55.570;37.488;2022-11-25T08:25:27;7.10;;;2.95;;
74935;SDS011;63501;55.570;37.488;2022-11-25T08:27:54;6.90;;;3.80;;
74935;SDS011;63501;55.570;37.488;2022-11-25T08:30:19;8.27;;;3.63;;
74935;SDS011;63501;55.570;37.488;2022-11-25T08:32:48;7.93;;;3.90;;
74935;SDS011;63501;55.570;37.488;2022-11-25T08:35:14;5.90;;;3.38;;
74935;SDS011;63501;55.570;37.488;2022-11-25T08:37:39;9.00;;;4.82;;
74935;SDS011;63501;55.570;37.488;2022-11-25T08:40:05;9.35;;;3.70;;
74935;SDS011;63501;55.570;37.488;2022-11-25T08:42:31;9.43;;;4.07;;
74935;SDS011;63501;55.570;37.488;2022-11-25T08:44:58;8.20;;;3.80;;
74935;SDS011;63501;55.570;37.488;2022-11-25T08:47:24;8.57;;;3.88;;
74935;SDS011;63501;55.570;37.488;2022-11-25T08:49:50;11.05;;;4.63;;
74935;SDS011;63501;55.570;37.488;2022-11-25T08:52:18;13.63;;;4.63;;
74935;SDS011;63501;55.570;37.488;2022-11-25T08:54:44;12.70;;;4.68;;
74935;SDS011;63501;55.570;37.488;2022-11-25T08:57:09;10.77;;;4.25;;
74935;SDS011;63501;55.570;37.488;2022-11-25T08:59:35;10.48;;;4.97;;
74935;SDS011;63501;55.570;37.488;2022-11-25T09:02:01;11.10;;;4.40;;
74935;SDS011;63501;55.570;37.488;2022-11-25T09:04:27;8.23;;;3.58;;
74935;SDS011;63501;55.570;37.488;2022-11-25T09:06:52;7.88;;;2.83;;
74935;SDS011;63501;55.570;37.488;2022-11-25T09:09:18;9.07;;;3.15;;
74935;SDS011;63501;55.570;37.488;2022-11-25T09:11:43;7.07;;;2.90;;
74935;SDS011;63501;55.570;37.488;2022-11-25T09:14:09;6.55;;;2.90;;
74935;SDS011;63501;55.570;37.488;2022-11-25T09:16:34;8.48;;;3.58;;
74935;SDS011;63501;55.570;37.488;2022-11-25T09:19:00;9.27;;;4.03;;
74935;SDS011;63501;55.570;37.488;2022-11-25T09:21:26;8.75;;;3.55;;
74935;SDS011;63501;55.570;37.488;2022-11-25T09:23:51;8.95;;;4.15;;
74935;SDS011;63501;55.570;37.488;2022-11-25T09:26:20;9.40;;;3.78;;
74935;SDS011;63501;55.570;37.488;2022-11-25T09:28:59;11.02;;;4.63;;
74935;SDS011;63501;55.570;37.488;2022-11-25T09:31:26;6.55;;;2.85;;
74935;SDS011;63501;55.570;37.488;2022-11-25T09:33:52;9.45;;;3.65;;
74935;SDS011;63501;55.570;37.488;2022-11-25T09:36:18;10.73;;;3.72;;
74935;SDS011;63501;55.570;37.488;2022-11-25T09:38:44;7.60;;;3.08;;
74935;SDS011;63501;55.570;37.488;2022-11-25T09:47:18;9.30;;;3.42;;
74935;SDS011;63501;55.570;37.488;2022-11-25T09:55:48;7.22;;;3.30;;
74935;SDS011;63501;55.570;37.488;2022-11-25T10:01:22;10.32;;;4.00;;
74935;SDS011;63501;55.570;37.488;2022-11-25T10:04:00;9.55;;;3.85;;
74935;SDS011;63501;55.570;37.488;2022-11-25T10:06:36;5.38;;;2.38;;
74935;SDS011;63501;55.570;37.488;2022-11-25T10:09:10;10.02;;;4.20;;
74935;SDS011;63501;55.570;37.488;2022-11-25T10:19:41;8.77;;;3.80;;
74935;SDS011;63501;55.570;37.488;2022-11-25T10:22:27;8.15;;;3.25;;
74935;SDS011;63501;55.570;37.488;2022-11-25T10:24:57;7.50;;;2.90;;
74935;SDS011;63501;55.570;37.488;2022-11-25T10:32:45;7.03;;;2.80;;
74935;SDS011;63501;55.570;37.488;2022-11-25T10:41:08;7.20;;;2.47;;
74935;SDS011;63501;55.570;37.488;2022-11-25T10:43:39;9.13;;;2.88;;
74935;SDS011;63501;55.570;37.488;2022-11-25T10:46:22;7.13;;;2.90;;
74935;SDS011;63501;55.570;37.488;2022-11-25T10:49:00;5.78;;;2.42;;
74935;SDS011;63501;55.570;37.488;2022-11-25T10:56:47;6.95;;;3.58;;
74935;SDS011;63501;55.570;37.488;2022-11-25T10:59:31;6.57;;;2.60;;
74935;SDS011;63501;55.570;37.488;2022-11-25T11:07:20;9.23;;;3.05;;
74935;SDS011;63501;55.570;37.488;2022-11-25T11:09:46;7.82;;;3.55;;
74935;SDS011;63501;55.570;37.488;2022-11-25T11:12:14;6.63;;;2.72;;
74935;SDS011;63501;55.570;37.488;2022-11-25T11:14:45;7.90;;;3.03;;
74935;SDS011;63501;55.570;37.488;2022-11-25T11:17:32;6.20;;;2.17;;
74935;SDS011;63501;55.570;37.488;2022-11-25T11:22:33;5.97;;;2.47;;
74935;SDS011;63501;55.570;37.488;2022-11-25T11:27:35;7.97;;;2.95;;
74935;SDS011;63501;55.570;37.488;2022-11-25T11:30:09;7.72;;;2.63;;
74935;SDS011;63501;55.570;37.488;2022-11-25T11:32:41;7.50;;;2.90;;
74935;SDS011;63501;55.570;37.488;2022-11-25T11:35:15;7.13;;;2.70;;
74935;SDS011;63501;55.570;37.488;2022-11-25T11:37:51;4.43;;;2.72;;
74935;SDS011;63501;55.570;37.488;2022-11-25T11:40:39;6.30;;;2.85;;
74935;SDS011;63501;55.570;37.488;2022-11-25T11:49:01;4.72;;;2.20;;
74935;SDS011;63501;55.570;37.488;2022-11-25T11:51:42;6.95;;;2.92;;
74935;SDS011;63501;55.570;37.488;2022-11-25T11:54:21;6.20;;;3.00;;
74935;SDS011;63501;55.570;37.488;2022-11-25T12:05:26;5.97;;;2.33;;
74935;SDS011;63501;55.570;37.488;2022-11-25T12:08:15;6.20;;;2.42;;
74935;SDS011;63501;55.570;37.488;2022-11-25T12:10:50;7.30;;;3.92;;
74935;SDS011;63501;55.570;37.488;2022-11-25T12:13:31;7.05;;;3.85;;
74935;SDS011;63501;55.570;37.488;2022-11-25T12:19:09;6.57;;;2.92;;
74935;SDS011;63501;55.570;37.488;2022-11-25T12:25:00;8.18;;;3.17;;
74935;SDS011;63501;55.570;37.488;2022-11-25T12:30:15;6.65;;;2.70;;
74935;SDS011;63501;55.570;37.488;2022-11-25T12:38:44;6.63;;;3.13;;
74935;SDS011;63501;55.570;37.488;2022-11-25T12:47:13;6.18;;;2.78;;
74935;SDS011;63501;55.570;37.488;2022-11-25T12:49:45;9.15;;;3.97;;
74935;SDS011;63501;55.570;37.488;2022-11-25T12:55:03;8.30;;;2.60;;
74935;SDS011;63501;55.570;37.488;2022-11-25T13:03:58;6.18;;;3.10;;
74935;SDS011;63501;55.570;37.488;2022-11-25T13:17:47;5.88;;;3.22;;
74935;SDS011;63501;55.570;37.488;2022-11-25T13:25:35;8.48;;;4.22;;
74935;SDS011;63501;55.570;37.488;2022-11-25T13:30:53;7.03;;;2.92;;
74935;SDS011;63501;55.570;37.488;2022-11-25T13:35:48;6.60;;;3.40;;
74935;SDS011;63501;55.570;37.488;2022-11-25T13:43:25;5.68;;;2.97;;
74935;SDS011;63501;55.570;37.488;2022-11-25T13:45:52;6.78;;;2.95;;
74935;SDS011;63501;55.570;37.488;2022-11-25T13:48:20;6.32;;;2.70;;
74935;SDS011;63501;55.570;37.488;2022-11-25T13:50:49;9.23;;;2.85;;
74935;SDS011;63501;55.570;37.488;2022-11-25T13:53:28;5.15;;;2.70;;
74935;SDS011;63501;55.570;37.488;2022-11-25T14:04:10;5.93;;;2.45;;
74935;SDS011;63501;55.570;37.488;2022-11-25T14:12:37;5.47;;;2.38;;
74935;SDS011;63501;55.570;37.488;2022-11-25T14:26:51;4.60;;;2.53;;
74935;SDS011;63501;55.570;37.488;2022-11-25T14:34:41;7.00;;;2.95;;
74935;SDS011;63501;55.570;37.488;2022-11-25T14:37:16;6.82;;;3.00;;
74935;SDS011;63501;55.570;37.488;2022-11-25T14:42:52;3.95;;;2.00;;
74935;SDS011;63501;55.570;37.488;2022-11-25T14:48:11;7.05;;;3.00;;
74935;SDS011;63501;55.570;37.488;2022-11-25T14:50:54;6.43;;;2.47;;
74935;SDS011;63501;55.570;37.488;2022-11-25T14:53:23;6.05;;;2.60;;
74935;SDS011;63501;55.570;37.488;2022-11-25T14:55:49;4.53;;;1.88;;
74935;SDS011;63501;55.570;37.488;2022-11-25T14:58:15;4.32;;;2.22;;
74935;SDS011;63501;55.570;37.488;2022-11-25T15:00:52;5.35;;;2.65;;
74935;SDS011;63501;55.570;37.488;2022-11-25T15:03:31;5.05;;;2.20;;
74935;SDS011;63501;55.570;37.488;2022-11-25T15:06:02;5.70;;;2.20;;
74935;SDS011;63501;55.570;37.488;2022-11-25T15:08:36;6.28;;;2.30;;
74935;SDS011;63501;55.570;37.488;2022-11-25T15:11:05;4.90;;;2.33;;
74935;SDS011;63501;55.570;37.488;2022-11-25T15:13:42;4.75;;;2.22;;
74935;SDS011;63501;55.570;37.488;2022-11-25T15:18:36;7.95;;;3.08;;
74935;SDS011;63501;55.570;37.488;2022-11-25T15:21:03;4.85;;;2.20;;
74935;SDS011;63501;55.570;37.488;2022-11-25T15:23:33;4.65;;;2.30;;
74935;SDS011;63501;55.570;37.488;2022-11-25T15:26:02;6.50;;;2.55;;
74935;SDS011;63501;55.570;37.488;2022-11-25T15:28:32;6.00;;;3.00;;
74935;SDS011;63501;55.570;37.488;2022-11-25T15:31:48;5.70;;;2.60;;
74935;SDS011;63501;55.570;37.488;2022-11-25T15:33:57;4.93;;;2.35;;
74935;SDS011;63501;55.570;37.488;2022-11-25T15:36:26;4.28;;;2.70;;
74935;SDS011;63501;55.570;37.488;2022-11-25T15:38:52;4.95;;;2.15;;
74935;SDS011;63501;55.570;37.488;2022-11-25T15:44:03;5.18;;;2.47;;
74935;SDS011;63501;55.570;37.488;2022-11-25T15:46:31;4.95;;;2.30;;
74935;SDS011;63501;55.570;37.488;2022-11-25T15:49:03;3.67;;;2.30;;
74935;SDS011;63501;55.570;37.488;2022-11-25T15:51:40;5.57;;;2.85;;
74935;SDS011;63501;55.570;37.488;2022-11-25T15:56:38;3.72;;;1.80;;
74935;SDS011;63501;55.570;37.488;2022-11-25T16:01:57;6.00;;;2.40;;
74935;SDS011;63501;55.570;37.488;2022-11-25T16:04:22;5.57;;;2.78;;
74935;SDS011;63501;55.570;37.488;2022-11-25T16:06:55;6.28;;;2.50;;
74935;SDS011;63501;55.570;37.488;2022-11-25T16:09:23;5.45;;;2.38;;
74935;SDS011;63501;55.570;37.488;2022-11-25T16:11:51;5.03;;;2.28;;
74935;SDS011;63501;55.570;37.488;2022-11-25T16:16:43;5.38;;;2.05;;
74935;SDS011;63501;55.570;37.488;2022-11-25T16:19:10;4.78;;;2.58;;
74935;SDS011;63501;55.570;37.488;2022-11-25T16:21:40;5.90;;;2.67;;
74935;SDS011;63501;55.570;37.488;2022-11-25T16:24:28;5.00;;;2.90;;
74935;SDS011;63501;55.570;37.488;2022-11-25T16:27:15;5.28;;;2.58;;
74935;SDS011;63501;55.570;37.488;2022-11-25T16:29:54;4.75;;;2.58;;
74935;SDS011;63501;55.570;37.488;2022-11-25T16:32:27;3.70;;;1.92;;
74935;SDS011;63501;55.570;37.488;2022-11-25T16:34:59;4.63;;;2.17;;
74935;SDS011;63501;55.570;37.488;2022-11-25T16:37:47;4.93;;;1.95;;
74935;SDS011;63501;55.570;37.488;2022-11-25T16:40:14;4.40;;;2.47;;
74935;SDS011;63501;55.570;37.488;2022-11-25T16:42:44;5.13;;;2.65;;
74935;SDS011;63501;55.570;37.488;2022-11-25T16:45:19;4.75;;;2.55;;
74935;SDS011;63501;55.570;37.488;2022-11-25T16:47:47;4.57;;;1.92;;
74935;SDS011;63501;55.570;37.488;2022-11-25T16:50:13;4.55;;;2.05;;
74935;SDS011;63501;55.570;37.488;2022-11-25T16:52:40;5.35;;;2.90;;
74935;SDS011;63501;55.570;37.488;2022-11-25T16:55:06;6.60;;;2.60;;
74935;SDS011;63501;55.570;37.488;2022-11-25T16:57:32;6.30;;;2.90;;
74935;SDS011;63501;55.570;37.488;2022-11-25T16:59:58;7.50;;;2.42;;
74935;SDS011;63501;55.570;37.488;2022-11-25T17:02:31;5.00;;;2.17;;
74935;SDS011;63501;55.570;37.488;2022-11-25T17:04:57;4.32;;;2.15;;
74935;SDS011;63501;55.570;37.488;2022-11-25T17:07:31;6.70;;;2.60;;
74935;SDS011;63501;55.570;37.488;2022-11-25T17:09:56;5.00;;;2.28;;
74935;SDS011;63501;55.570;37.488;2022-11-25T17:12:24;5.50;;;2.42;;
74935;SDS011;63501;55.570;37.488;2022-11-25T17:14:53;6.13;;;2.50;;
74935;SDS011;63501;55.570;37.488;2022-11-25T17:17:20;3.75;;;1.90;;
74935;SDS011;63501;55.570;37.488;2022-11-25T17:19:47;3.42;;;2.13;;
74935;SDS011;63501;55.570;37.488;2022-11-25T17:22:20;4.78;;;2.00;;
74935;SDS011;63501;55.570;37.488;2022-11-25T17:27:21;3.97;;;1.92;;
74935;SDS011;63501;55.570;37.488;2022-11-25T17:29:53;4.70;;;2.20;;
74935;SDS011;63501;55.570;37.488;2022-11-25T17:32:19;4.68;;;2.50;;
74935;SDS011;63501;55.570;37.488;2022-11-25T17:34:47;3.80;;;1.85;;
74935;SDS011;63501;55.570;37.488;2022-11-25T17:37:17;5.88;;;2.15;;
74935;SDS011;63501;55.570;37.488;2022-11-25T17:39:44;5.43;;;2.40;;
74935;SDS011;63501;55.570;37.488;2022-11-25T17:42:12;5.93;;;2.90;;
74935;SDS011;63501;55.570;37.488;2022-11-25T17:44:40;6.63;;;2.75;;
74935;SDS011;63501;55.570;37.488;2022-11-25T17:47:10;6.18;;;2.92;;
74935;SDS011;63501;55.570;37.488;2022-11-25T17:49:37;4.13;;;2.17;;